Time;durP1;ratioP1;P1;durP2;ratioP2;P2;SDS_P1;SDS_P2;PMS_P1;PMS_P2;Temp;Humidity;BMP_temperature;BMP_pressure;BME280_temperature;BME280_humidity;BME280_pressure;Samples;Min_cycle;Max_cycle;Signal;HPM_P1;HPM_P2
2022/01/26 00:07:48;;;;;;;42.00;14.90;;;1.70;99.90;;;;;;5032997;28;20448;-74
2022/01/26 00:10:15;;;;;;;34.40;15.20;;;1.70;99.90;;;;;;5033336;28;20453;-74
2022/01/26 00:12:43;;;;;;;34.00;14.73;;;1.70;99.90;;;;;;5032779;28;20477;-74
2022/01/26 00:15:11;;;;;;;39.57;16.40;;;1.70;99.90;;;;;;5035910;28;20527;-74
2022/01/26 00:17:38;;;;;;;34.30;16.10;;;1.70;99.90;;;;;;5038458;28;20465;-74
2022/01/26 00:20:14;;;;;;;37.70;16.20;;;1.70;99.90;;;;;;5031751;28;20464;-74
2022/01/26 00:22:55;;;;;;;34.40;15.00;;;1.70;99.90;;;;;;5033156;28;20481;-74
2022/01/26 00:25:33;;;;;;;41.53;16.47;;;1.70;99.90;;;;;;5031767;28;20547;-74
2022/01/26 00:28:29;;;;;;;43.23;16.40;;;1.70;99.90;;;;;;5031954;28;20453;-74
2022/01/26 00:39:07;;;;;;;38.77;16.73;;;1.70;99.90;;;;;;5032269;28;20448;-74
2022/01/26 00:41:36;;;;;;;36.67;17.37;;;1.70;99.90;;;;;;5031991;28;20456;-75
2022/01/26 00:44:06;;;;;;;38.73;16.20;;;1.60;99.90;;;;;;5033109;28;20493;-74
2022/01/26 00:46:34;;;;;;;42.40;17.70;;;1.60;99.90;;;;;;5035308;28;20536;-74
2022/01/26 00:49:00;;;;;;;43.80;16.77;;;1.60;99.90;;;;;;5031530;28;20553;-74
2022/01/26 00:51:27;;;;;;;50.73;20.03;;;1.70;99.90;;;;;;5031767;28;20453;-74
2022/01/26 00:54:01;;;;;;;45.30;18.63;;;1.70;99.90;;;;;;5040842;28;20989;-74
2022/01/26 00:56:28;;;;;;;42.40;18.63;;;1.70;99.90;;;;;;5033148;28;20977;-74
2022/01/26 00:58:55;;;;;;;45.60;17.27;;;1.70;99.90;;;;;;5031816;28;20456;-74
2022/01/26 01:01:23;;;;;;;40.73;17.47;;;1.80;99.90;;;;;;5031868;28;20533;-74
2022/01/26 01:03:50;;;;;;;43.67;17.47;;;1.80;99.90;;;;;;5032206;28;20515;-74
2022/01/26 01:06:24;;;;;;;45.43;19.30;;;1.80;99.90;;;;;;5015541;28;20470;-74
2022/01/26 01:08:51;;;;;;;43.40;17.53;;;1.80;99.90;;;;;;5031879;28;20461;-74
2022/01/26 01:11:18;;;;;;;37.80;16.90;;;1.80;99.90;;;;;;5032266;28;20459;-74
2022/01/26 01:13:46;;;;;;;46.43;20.00;;;1.80;99.90;;;;;;5017872;28;20481;-74
2022/01/26 01:16:18;;;;;;;47.87;18.63;;;1.80;99.90;;;;;;5040664;28;20459;-74
2022/01/26 01:18:53;;;;;;;42.53;17.07;;;1.80;99.90;;;;;;5036851;28;20460;-74
2022/01/26 01:24:51;;;;;;;50.63;20.77;;;1.80;99.90;;;;;;5035778;28;20487;-74
2022/01/26 01:27:39;;;;;;;50.90;19.40;;;1.80;99.90;;;;;;5032384;28;20514;-74
2022/01/26 01:30:11;;;;;;;60.50;19.30;;;1.80;99.90;;;;;;5027611;28;20449;-75
2022/01/26 01:32:50;;;;;;;56.13;19.63;;;1.70;99.90;;;;;;5032407;28;20512;-74
2022/01/26 01:35:18;;;;;;;53.90;19.37;;;1.70;99.90;;;;;;5045421;28;20448;-74
2022/01/26 01:37:45;;;;;;;51.80;19.27;;;1.70;99.90;;;;;;5034847;28;20971;-74
2022/01/26 01:40:12;;;;;;;50.23;18.70;;;1.70;99.90;;;;;;5030898;28;20472;-74
2022/01/26 01:42:39;;;;;;;49.57;19.17;;;1.70;99.90;;;;;;5030930;28;20882;-74
2022/01/26 01:45:08;;;;;;;57.20;20.03;;;1.70;99.90;;;;;;5031373;28;20485;-75
2022/01/26 01:47:34;;;;;;;51.77;19.33;;;1.70;99.90;;;;;;5016460;28;20493;-74
2022/01/26 01:50:03;;;;;;;56.23;20.67;;;1.70;99.90;;;;;;5030795;28;20469;-74
2022/01/26 01:52:31;;;;;;;51.33;19.90;;;1.80;99.90;;;;;;5033462;28;20488;-75
2022/01/26 01:55:03;;;;;;;55.33;19.93;;;1.80;99.90;;;;;;5040674;28;20465;-74
2022/01/26 01:57:30;;;;;;;58.57;22.17;;;1.80;99.90;;;;;;5040422;28;20457;-75
2022/01/26 01:59:56;;;;;;;52.47;21.20;;;1.80;99.90;;;;;;5040246;28;20460;-74
2022/01/26 02:02:23;;;;;;;54.37;20.80;;;1.80;99.90;;;;;;5017761;28;21067;-74
2022/01/26 02:04:50;;;;;;;63.33;20.53;;;1.80;99.90;;;;;;5026576;28;20481;-74
2022/01/26 02:07:16;;;;;;;53.70;21.93;;;1.90;99.90;;;;;;5030350;28;20457;-74
2022/01/26 02:09:44;;;;;;;55.37;21.10;;;1.90;99.90;;;;;;5025356;28;20453;-75
2022/01/26 02:12:16;;;;;;;55.83;21.57;;;1.90;99.90;;;;;;5031035;28;20454;-75
2022/01/26 02:14:48;;;;;;;56.40;21.33;;;1.80;99.90;;;;;;5032356;28;20448;-74
2022/01/26 02:17:35;;;;;;;50.77;19.77;;;1.90;99.90;;;;;;5048423;28;20460;-74
2022/01/26 02:20:32;;;;;;;54.83;22.00;;;1.80;99.90;;;;;;5041974;28;20459;-74
2022/01/26 02:53:58;;;;;;;41.83;16.70;;;1.80;99.90;;;;;;5088499;28;20564;-75
2022/01/26 02:56:31;;;;;;;46.80;19.33;;;1.80;99.90;;;;;;5054336;28;20494;-74
2022/01/26 02:59:36;;;;;;;46.30;16.87;;;1.80;99.90;;;;;;5049931;28;20463;-74
2022/01/26 03:02:07;;;;;;;45.80;16.00;;;1.80;99.90;;;;;;5063645;28;20540;-74
2022/01/26 03:04:40;;;;;;;45.43;18.07;;;1.80;99.90;;;;;;5065401;28;20456;-74
2022/01/26 03:07:12;;;;;;;44.67;17.53;;;1.80;99.90;;;;;;5048306;28;20960;-74
2022/01/26 03:09:45;;;;;;;43.23;17.23;;;1.80;99.90;;;;;;5048205;28;21036;-74
2022/01/26 03:12:17;;;;;;;43.13;17.13;;;1.80;99.90;;;;;;5064280;28;20493;-74
2022/01/26 03:14:48;;;;;;;46.70;19.87;;;1.80;99.90;;;;;;5064221;28;20473;-74
2022/01/26 03:17:28;;;;;;;46.20;19.47;;;1.70;99.90;;;;;;5049053;28;20526;-74
2022/01/26 03:20:01;;;;;;;46.77;18.80;;;1.70;99.90;;;;;;5055394;28;20462;-74
2022/01/26 03:28:19;;;;;;;47.80;18.80;;;1.60;99.90;;;;;;5067008;28;21028;-74
2022/01/26 03:33:55;;;;;;;37.13;17.00;;;1.50;99.90;;;;;;5027552;28;20487;-74
2022/01/26 03:36:26;;;;;;;42.30;17.23;;;1.50;99.90;;;;;;5054913;28;20548;-74
2022/01/26 03:39:00;;;;;;;33.53;15.80;;;1.40;99.90;;;;;;5067583;28;20459;-74
2022/01/26 03:41:36;;;;;;;38.47;15.53;;;1.40;99.90;;;;;;5057369;28;21137;-74
2022/01/26 03:44:04;;;;;;;43.80;16.97;;;1.40;99.90;;;;;;5047543;28;20476;-74
2022/01/26 03:46:31;;;;;;;40.73;18.40;;;1.40;99.90;;;;;;5058819;28;20542;-74
2022/01/26 03:48:58;;;;;;;39.20;16.37;;;1.40;99.90;;;;;;5062342;28;20445;-74
2022/01/26 03:51:25;;;;;;;38.30;16.20;;;1.40;99.90;;;;;;5055907;28;20621;-73
2022/01/26 03:53:51;;;;;;;38.80;16.57;;;1.40;99.90;;;;;;5056914;28;20472;-74
2022/01/26 03:56:18;;;;;;;35.43;16.83;;;1.40;99.90;;;;;;5064674;28;20982;-74
2022/01/26 03:58:46;;;;;;;40.93;17.87;;;1.40;99.90;;;;;;5066519;28;20451;-74
2022/01/26 04:01:13;;;;;;;35.30;15.30;;;1.40;99.90;;;;;;5061949;28;20448;-74
2022/01/26 04:03:40;;;;;;;35.17;16.07;;;1.30;99.90;;;;;;5047021;28;20555;-74
2022/01/26 04:06:07;;;;;;;32.07;16.37;;;1.30;99.90;;;;;;5037420;28;20449;-74
2022/01/26 04:08:36;;;;;;;39.03;16.10;;;1.30;99.90;;;;;;5037133;28;20456;-74
2022/01/26 04:11:15;;;;;;;34.80;14.80;;;1.30;99.90;;;;;;5048974;28;20507;-74
2022/01/26 04:13:42;;;;;;;33.57;14.90;;;1.30;99.90;;;;;;5044162;28;20508;-74
2022/01/26 04:16:10;;;;;;;32.20;16.43;;;1.30;99.90;;;;;;5038361;28;20507;-74
2022/01/26 04:18:39;;;;;;;39.50;16.93;;;1.30;99.90;;;;;;5033220;28;20499;-75
2022/01/26 04:21:14;;;;;;;34.33;16.10;;;1.30;99.90;;;;;;5041367;28;20448;-74
2022/01/26 04:23:47;;;;;;;30.97;15.53;;;1.30;99.90;;;;;;5034784;28;20477;-74
2022/01/26 04:26:17;;;;;;;32.90;16.53;;;1.30;99.90;;;;;;5034069;28;20468;-74
2022/01/26 04:28:50;;;;;;;40.60;15.13;;;1.30;99.90;;;;;;5038635;28;20964;-74
2022/01/26 04:31:20;;;;;;;38.70;17.70;;;1.30;99.90;;;;;;5039920;28;20498;-74
2022/01/26 04:33:47;;;;;;;33.60;16.27;;;1.30;99.90;;;;;;5033681;28;20489;-74
2022/01/26 04:36:18;;;;;;;38.70;16.47;;;1.30;99.90;;;;;;5045604;28;20944;-74
2022/01/26 04:38:49;;;;;;;39.13;15.80;;;1.30;99.90;;;;;;5050043;28;20453;-74
2022/01/26 04:41:26;;;;;;;34.90;16.77;;;1.30;99.90;;;;;;5045390;28;20457;-74
2022/01/26 04:43:58;;;;;;;36.17;16.97;;;1.30;99.90;;;;;;5034264;28;20479;-74
2022/01/26 04:46:26;;;;;;;36.10;15.73;;;1.30;99.90;;;;;;5052393;28;20456;-74
2022/01/26 04:48:53;;;;;;;35.90;16.80;;;1.30;99.90;;;;;;5052492;28;20459;-74
2022/01/26 04:51:19;;;;;;;40.73;17.20;;;1.30;99.90;;;;;;5040337;28;20448;-75
2022/01/26 04:53:46;;;;;;;35.70;16.50;;;1.30;99.90;;;;;;5032857;28;20546;-74
2022/01/26 04:56:14;;;;;;;34.43;15.50;;;1.30;99.90;;;;;;5033426;28;20507;-74
2022/01/26 04:58:41;;;;;;;34.70;15.87;;;1.30;99.90;;;;;;5052485;28;20491;-74
2022/01/26 05:01:08;;;;;;;33.90;15.97;;;1.30;99.90;;;;;;5035139;28;20507;-74
2022/01/26 05:03:36;;;;;;;33.57;15.43;;;1.30;99.90;;;;;;5033010;28;20469;-74
2022/01/26 05:06:03;;;;;;;38.43;16.70;;;1.40;99.90;;;;;;5033528;28;20453;-74
2022/01/26 05:08:29;;;;;;;35.13;16.43;;;1.30;99.90;;;;;;5033613;28;20519;-74
2022/01/26 05:10:56;;;;;;;38.50;17.97;;;1.30;99.90;;;;;;5049043;28;20803;-74
2022/01/26 05:13:23;;;;;;;35.73;16.73;;;1.30;99.90;;;;;;5032892;28;20488;-74
2022/01/26 05:15:49;;;;;;;36.30;16.77;;;1.30;99.90;;;;;;5040604;28;20456;-74
2022/01/26 05:18:16;;;;;;;35.70;17.10;;;1.30;99.90;;;;;;5032771;28;20465;-74
2022/01/26 05:20:44;;;;;;;35.80;16.40;;;1.30;99.90;;;;;;5050008;28;20453;-74
2022/01/26 05:23:11;;;;;;;36.60;16.90;;;1.40;99.90;;;;;;5032928;28;20477;-74
2022/01/26 05:25:37;;;;;;;42.17;18.37;;;1.40;99.90;;;;;;5051073;28;20462;-73
2022/01/26 05:28:04;;;;;;;38.03;18.27;;;1.50;99.90;;;;;;5052368;28;20456;-74
2022/01/26 05:30:31;;;;;;;42.23;17.20;;;1.40;99.90;;;;;;5038833;28;20449;-74
2022/01/26 05:32:58;;;;;;;36.97;17.97;;;1.40;99.90;;;;;;5042132;28;20492;-74
2022/01/26 05:35:24;;;;;;;49.23;18.27;;;1.40;99.90;;;;;;5035146;28;20957;-74
2022/01/26 05:37:52;;;;;;;42.90;18.00;;;1.40;99.90;;;;;;5032565;28;20453;-74
2022/01/26 05:40:19;;;;;;;39.90;17.50;;;1.40;99.90;;;;;;5032053;28;20457;-74
2022/01/26 05:42:46;;;;;;;33.80;16.20;;;1.40;99.90;;;;;;5050040;28;20818;-74
2022/01/26 05:45:22;;;;;;;39.30;17.37;;;1.40;99.90;;;;;;5041794;28;20522;-74
2022/01/26 05:47:49;;;;;;;33.60;16.33;;;1.50;99.90;;;;;;5043179;28;20465;-75
2022/01/26 05:50:18;;;;;;;41.23;18.50;;;1.50;99.90;;;;;;5051567;28;20959;-74
2022/01/26 05:52:45;;;;;;;41.93;18.63;;;1.50;99.90;;;;;;5059902;23;20554;-78
2022/01/26 05:55:13;;;;;;;39.90;17.77;;;1.50;99.90;;;;;;5023623;28;20454;-78
2022/01/26 05:57:40;;;;;;;42.90;18.53;;;1.50;99.90;;;;;;5029798;28;20457;-78
2022/01/26 06:00:08;;;;;;;44.10;17.90;;;1.50;99.90;;;;;;5029142;28;20462;-78
2022/01/26 06:02:35;;;;;;;43.70;16.30;;;1.50;99.90;;;;;;5027811;28;20477;-76
2022/01/26 06:05:01;;;;;;;35.97;16.03;;;1.50;99.90;;;;;;5017439;28;20962;-76
2022/01/26 06:07:28;;;;;;;30.27;14.03;;;1.40;99.90;;;;;;5011438;28;20454;-76
2022/01/26 06:09:54;;;;;;;31.97;12.97;;;1.40;99.90;;;;;;5019038;28;20450;-76
2022/01/26 06:12:22;;;;;;;34.70;14.70;;;1.40;99.90;;;;;;5011168;28;20458;-76
2022/01/26 06:14:49;;;;;;;32.70;13.37;;;1.50;99.90;;;;;;5011255;28;20462;-76
2022/01/26 06:17:16;;;;;;;34.70;14.93;;;1.40;99.90;;;;;;5011550;28;20450;-76
2022/01/26 06:19:43;;;;;;;34.77;14.33;;;1.40;99.90;;;;;;5020135;28;20831;-78
2022/01/26 06:22:09;;;;;;;34.13;13.73;;;1.50;99.90;;;;;;5016234;28;20463;-76
2022/01/26 06:24:36;;;;;;;34.00;14.97;;;1.40;99.90;;;;;;5015720;28;20473;-75
2022/01/26 06:27:03;;;;;;;40.70;14.57;;;1.50;99.90;;;;;;5025331;28;20505;-77
2022/01/26 06:29:31;;;;;;;35.57;15.50;;;1.50;99.90;;;;;;5010135;28;20461;-77
2022/01/26 06:31:58;;;;;;;36.80;15.03;;;1.50;99.90;;;;;;5010479;28;20458;-75
2022/01/26 06:34:25;;;;;;;36.03;14.80;;;1.50;99.90;;;;;;5010934;28;20490;-75
2022/01/26 06:36:51;;;;;;;36.50;14.87;;;1.50;99.90;;;;;;5025900;28;20484;-75
2022/01/26 06:39:18;;;;;;;39.73;14.60;;;1.40;99.90;;;;;;5014496;28;20512;-75
2022/01/26 06:41:50;;;;;;;45.53;15.03;;;1.40;99.90;;;;;;5010945;28;20462;-75
2022/01/26 06:44:22;;;;;;;35.47;16.07;;;1.40;99.90;;;;;;5005840;28;20474;-75
2022/01/26 06:46:59;;;;;;;42.30;15.20;;;1.40;99.90;;;;;;5013361;28;20464;-76
2022/01/26 06:49:32;;;;;;;40.50;15.97;;;1.50;99.90;;;;;;5009783;28;20458;-76
2022/01/26 06:51:59;;;;;;;40.10;16.00;;;1.40;99.90;;;;;;5010970;28;20438;-77
2022/01/26 06:54:26;;;;;;;38.27;16.00;;;1.40;99.90;;;;;;5010446;28;20490;-73
2022/01/26 06:56:53;;;;;;;35.37;15.07;;;1.40;99.90;;;;;;5010986;28;20501;-72
2022/01/26 06:59:20;;;;;;;35.37;14.80;;;1.50;99.90;;;;;;5013162;28;20508;-73
2022/01/26 07:01:47;;;;;;;38.07;14.50;;;1.40;99.90;;;;;;5005901;28;20523;-72
2022/01/26 07:04:15;;;;;;;36.03;14.40;;;1.40;99.90;;;;;;5010592;28;20621;-72
2022/01/26 07:06:42;;;;;;;39.23;15.87;;;1.40;99.90;;;;;;5010213;28;20458;-72
2022/01/26 07:09:09;;;;;;;41.10;17.23;;;1.50;99.90;;;;;;5023066;28;20801;-72
2022/01/26 07:11:35;;;;;;;49.43;18.13;;;1.50;99.90;;;;;;5012170;28;20922;-72
2022/01/26 07:14:07;;;;;;;38.80;17.10;;;1.50;99.90;;;;;;5009499;28;20528;-72
2022/01/26 07:22:08;;;;;;;78.07;25.40;;;1.70;99.90;;;;;;5008709;28;20533;-72
2022/01/26 07:24:35;;;;;;;54.73;20.30;;;1.80;99.90;;;;;;5012413;28;20500;-73
2022/01/26 07:27:02;;;;;;;71.17;24.30;;;1.90;99.90;;;;;;5015925;28;20457;-73
2022/01/26 07:29:28;;;;;;;70.17;25.67;;;2.00;99.90;;;;;;5022722;28;20524;-71
2022/01/26 07:31:55;;;;;;;44.13;17.77;;;2.10;99.90;;;;;;5009280;28;20447;-73
2022/01/26 07:34:24;;;;;;;40.83;17.67;;;2.10;99.90;;;;;;5006454;28;20493;-72
2022/01/26 07:36:54;;;;;;;41.67;17.40;;;2.10;99.90;;;;;;5008233;28;20462;-72
2022/01/26 07:39:30;;;;;;;51.20;21.90;;;2.00;99.90;;;;;;5012444;28;20469;-72
2022/01/26 07:41:59;;;;;;;52.57;19.20;;;2.00;99.90;;;;;;5013235;28;20465;-72
2022/01/26 07:44:26;;;;;;;54.83;18.67;;;2.00;99.90;;;;;;5012369;28;20466;-72
2022/01/26 07:46:53;;;;;;;46.10;19.17;;;1.90;99.90;;;;;;5012933;28;20458;-72
2022/01/26 07:49:19;;;;;;;48.90;20.03;;;1.80;99.90;;;;;;5012817;28;20512;-72
2022/01/26 07:51:50;;;;;;;58.97;19.00;;;1.70;99.90;;;;;;5014211;28;20454;-73
2022/01/26 07:54:18;;;;;;;49.77;19.07;;;1.60;99.90;;;;;;5012748;28;20478;-72
2022/01/26 07:56:46;;;;;;;52.73;20.33;;;1.50;99.90;;;;;;5012261;28;20454;-71
2022/01/26 07:59:12;;;;;;;58.70;22.37;;;1.50;99.90;;;;;;5012766;28;20447;-72
2022/01/26 08:01:39;;;;;;;48.93;19.60;;;1.50;99.90;;;;;;5011266;28;20516;-72
2022/01/26 08:04:06;;;;;;;50.00;20.30;;;1.50;99.90;;;;;;5012584;28;20528;-73
2022/01/26 08:06:33;;;;;;;53.40;20.90;;;1.50;99.90;;;;;;5013822;28;20877;-71
2022/01/26 08:09:01;;;;;;;54.80;20.40;;;1.50;99.90;;;;;;5013263;28;20466;-72
2022/01/26 08:11:27;;;;;;;52.83;20.80;;;1.60;99.90;;;;;;5013335;28;20870;-73
2022/01/26 08:13:54;;;;;;;53.60;20.93;;;1.60;99.90;;;;;;5028000;28;21140;-72
2022/01/26 08:16:20;;;;;;;52.33;21.83;;;1.60;99.90;;;;;;5010546;28;20808;-71
2022/01/26 08:18:47;;;;;;;54.43;21.33;;;1.60;99.90;;;;;;5011267;28;20822;-71
2022/01/26 08:21:15;;;;;;;53.47;19.90;;;1.60;99.90;;;;;;5022695;28;20453;-71
2022/01/26 08:23:44;;;;;;;53.67;20.80;;;1.70;99.90;;;;;;5024039;28;21019;-71
2022/01/26 08:26:13;;;;;;;53.00;19.60;;;1.60;99.90;;;;;;5011588;28;20549;-71
2022/01/26 08:28:44;;;;;;;51.20;20.03;;;1.60;99.90;;;;;;5011883;28;20765;-71
2022/01/26 08:31:13;;;;;;;50.57;18.80;;;1.60;99.90;;;;;;5015237;28;20670;-71
2022/01/26 08:33:39;;;;;;;48.80;20.73;;;1.60;99.90;;;;;;5014475;28;20486;-71
2022/01/26 08:36:06;;;;;;;55.43;19.60;;;1.50;99.90;;;;;;5013008;28;20451;-71
2022/01/26 08:38:33;;;;;;;67.13;20.57;;;1.60;99.90;;;;;;5014874;28;20577;-71
2022/01/26 08:40:59;;;;;;;54.40;21.07;;;1.60;99.90;;;;;;5014641;28;21033;-72
2022/01/26 08:43:27;;;;;;;50.20;20.23;;;1.60;99.90;;;;;;5011466;28;20474;-70
2022/01/26 08:45:54;;;;;;;58.10;22.40;;;1.60;99.90;;;;;;5013605;28;20454;-71
2022/01/26 08:48:21;;;;;;;56.80;21.17;;;1.60;99.90;;;;;;5022821;28;21012;-71
2022/01/26 08:50:48;;;;;;;54.63;21.97;;;1.60;99.90;;;;;;5017363;28;20469;-72
2022/01/26 08:53:15;;;;;;;56.97;21.17;;;1.50;99.90;;;;;;5010625;28;20524;-70
2022/01/26 08:55:42;;;;;;;75.87;22.60;;;1.60;99.90;;;;;;5010788;28;20516;-74
2022/01/26 08:58:08;;;;;;;56.40;22.33;;;1.60;99.90;;;;;;5013492;28;20454;-73
2022/01/26 09:00:37;;;;;;;56.60;21.37;;;1.60;99.90;;;;;;5012097;28;20494;-72
2022/01/26 09:03:04;;;;;;;102.73;35.37;;;1.60;99.90;;;;;;5023291;28;20534;-73
2022/01/26 09:05:31;;;;;;;114.10;37.57;;;1.90;99.90;;;;;;5014219;28;20582;-72
2022/01/26 09:07:59;;;;;;;56.95;24.88;;;2.90;99.90;;;;;;5009723;28;20478;-73
2022/01/26 09:10:28;;;;;;;54.53;20.70;;;3.70;99.90;;;;;;5007879;28;20204;-73
2022/01/26 09:12:55;;;;;;;63.63;23.30;;;3.50;99.90;;;;;;5010105;28;20478;-73
2022/01/26 09:15:27;;;;;;;60.03;21.40;;;3.40;99.90;;;;;;5020679;28;21017;-74
2022/01/26 09:17:55;;;;;;;51.47;20.50;;;2.90;99.90;;;;;;5019860;28;20545;-75
2022/01/26 09:20:22;;;;;;;52.73;23.03;;;2.70;99.90;;;;;;5029621;28;20548;-74
2022/01/26 09:22:49;;;;;;;51.37;20.80;;;2.40;99.90;;;;;;5028008;28;20958;-73
2022/01/26 09:25:16;;;;;;;63.90;23.17;;;2.30;99.90;;;;;;5009679;28;20458;-73
2022/01/26 09:27:42;;;;;;;49.57;19.40;;;2.10;99.90;;;;;;5010174;28;20455;-74
2022/01/26 09:30:10;;;;;;;46.33;19.80;;;1.90;99.90;;;;;;5009521;28;20541;-74
2022/01/26 09:32:37;;;;;;;54.90;19.40;;;1.80;99.90;;;;;;5009560;28;20480;-74
2022/01/26 09:35:07;;;;;;;50.63;20.07;;;1.70;99.90;;;;;;5010745;28;20551;-73
2022/01/26 09:37:34;;;;;;;58.87;22.60;;;1.70;99.90;;;;;;5012979;28;20508;-74
2022/01/26 09:40:01;;;;;;;46.60;19.20;;;1.80;99.90;;;;;;5003392;28;20450;-74
2022/01/26 09:42:27;;;;;;;57.73;21.63;;;1.70;99.90;;;;;;5010386;28;20458;-73
2022/01/26 09:44:54;;;;;;;49.57;20.50;;;1.70;99.90;;;;;;5009854;28;20469;-73
2022/01/26 09:47:25;;;;;;;51.07;21.20;;;1.60;99.90;;;;;;5011359;28;20454;-75
2022/01/26 09:49:52;;;;;;;54.93;22.07;;;1.60;99.90;;;;;;5010010;28;20458;-74
2022/01/26 09:52:28;;;;;;;48.70;20.33;;;1.60;99.90;;;;;;5013937;28;20455;-73
2022/01/26 09:54:57;;;;;;;53.47;21.13;;;1.60;99.90;;;;;;5011162;28;20477;-73
2022/01/26 09:57:24;;;;;;;54.10;21.13;;;1.60;99.90;;;;;;5014989;28;20455;-73
2022/01/26 09:59:52;;;;;;;66.70;22.97;;;1.60;99.90;;;;;;5020896;28;20950;-73
2022/01/26 10:02:25;;;;;;;55.07;20.90;;;1.60;99.90;;;;;;5011852;28;20462;-73
2022/01/26 10:04:58;;;;;;;58.70;22.70;;;1.60;99.90;;;;;;5005048;28;20454;-73
2022/01/26 10:07:30;;;;;;;61.93;22.80;;;1.60;99.90;;;;;;5010843;28;20462;-73
2022/01/26 10:10:28;;;;;;;60.13;23.10;;;1.60;99.90;;;;;;5010946;28;20489;-73
2022/01/26 10:16:04;;;;;;;62.10;24.80;;;1.70;99.90;;;;;;4975119;28;20449;-73
2022/01/26 10:18:32;;;;;;;59.50;23.17;;;1.70;99.90;;;;;;5009791;28;20520;-74
2022/01/26 10:21:01;;;;;;;79.03;22.90;;;1.80;99.90;;;;;;5008654;28;20454;-73
2022/01/26 10:23:35;;;;;;;57.27;22.77;;;1.70;99.90;;;;;;5009522;28;20466;-74
2022/01/26 10:26:04;;;;;;;57.43;22.80;;;1.70;99.90;;;;;;5009540;28;20497;-74
2022/01/26 10:28:44;;;;;;;70.70;25.97;;;1.70;99.90;;;;;;5013467;28;20527;-74
2022/01/26 10:31:16;;;;;;;56.43;20.53;;;1.80;99.90;;;;;;5019414;28;20446;-75
2022/01/26 10:33:54;;;;;;;58.73;22.37;;;1.80;99.90;;;;;;5010219;28;20485;-75
2022/01/26 10:36:20;;;;;;;58.97;23.20;;;1.80;99.90;;;;;;5010071;28;21007;-74
2022/01/26 10:38:58;;;;;;;69.03;23.97;;;1.90;99.90;;;;;;5011240;28;20447;-74
2022/01/26 10:41:25;;;;;;;60.43;23.20;;;1.90;99.90;;;;;;5010874;28;20453;-74
2022/01/26 10:43:54;;;;;;;57.77;22.47;;;2.00;99.90;;;;;;5017330;28;20527;-74
2022/01/26 10:46:27;;;;;;;62.20;22.20;;;1.90;99.90;;;;;;5011592;28;20572;-74
2022/01/26 10:49:07;;;;;;;66.03;22.50;;;2.00;99.90;;;;;;5009739;28;20903;-74
2022/01/26 10:51:51;;;;;;;55.17;19.30;;;2.00;99.90;;;;;;5003058;28;20585;-74
2022/01/26 10:54:23;;;;;;;55.10;19.43;;;2.00;99.90;;;;;;5008786;28;20494;-74
2022/01/26 10:56:50;;;;;;;57.47;21.43;;;2.00;99.90;;;;;;5009297;28;20446;-74
2022/01/26 10:59:17;;;;;;;52.70;20.80;;;2.00;99.90;;;;;;5010051;28;20458;-75
2022/01/26 11:01:44;;;;;;;56.93;20.50;;;1.90;99.90;;;;;;5009215;28;20458;-74
2022/01/26 11:04:11;;;;;;;55.93;22.70;;;1.80;99.90;;;;;;5009679;28;20498;-74
2022/01/26 11:06:38;;;;;;;60.97;20.83;;;1.80;99.90;;;;;;5028546;28;20461;-74
2022/01/26 11:09:11;;;;;;;52.07;21.70;;;1.80;99.90;;;;;;5016890;28;20860;-73
2022/01/26 11:11:40;;;;;;;71.23;22.30;;;1.80;99.90;;;;;;5009261;28;20458;-73
2022/01/26 11:14:15;;;;;;;59.67;23.10;;;1.80;99.90;;;;;;5016447;28;20982;-78
2022/01/26 11:16:50;;;;;;;57.53;19.10;;;1.80;99.90;;;;;;5014938;28;20461;-76
2022/01/26 11:19:17;;;;;;;59.93;21.77;;;1.90;99.90;;;;;;5012823;28;21075;-77
2022/01/26 11:21:43;;;;;;;51.30;20.87;;;1.90;99.90;;;;;;5012624;28;20466;-76
2022/01/26 11:24:16;;;;;;;50.40;20.30;;;1.90;99.90;;;;;;5013555;28;20520;-76
2022/01/26 11:26:45;;;;;;;52.07;21.57;;;1.90;99.90;;;;;;5013303;28;20862;-77
2022/01/26 11:29:17;;;;;;;63.40;20.80;;;1.90;99.90;;;;;;5005701;28;20462;-77
2022/01/26 11:31:44;;;;;;;51.83;21.40;;;1.90;99.90;;;;;;5011490;28;20532;-77
2022/01/26 11:34:11;;;;;;;69.20;25.63;;;1.90;99.90;;;;;;5013388;28;20489;-79
2022/01/26 11:36:42;;;;;;;65.80;23.57;;;2.00;99.90;;;;;;5014901;28;20958;-78
2022/01/26 11:42:24;;;;;;;57.13;23.63;;;2.00;99.90;;;;;;5012907;28;20441;-78
2022/01/26 11:45:05;;;;;;;53.97;21.33;;;2.00;99.90;;;;;;5014422;28;20461;-77
2022/01/26 11:47:32;;;;;;;67.27;21.97;;;2.00;99.90;;;;;;5013969;28;20454;-77
2022/01/26 11:50:06;;;;;;;54.63;20.57;;;2.00;99.90;;;;;;5013388;28;20453;-77
2022/01/26 11:52:35;;;;;;;69.53;24.57;;;2.00;99.90;;;;;;5013073;28;21163;-78
2022/01/26 11:55:07;;;;;;;73.13;27.23;;;2.00;99.90;;;;;;5012940;28;20482;-77
2022/01/26 11:57:43;;;;;;;68.10;27.97;;;2.00;99.90;;;;;;5004865;28;20825;-77
2022/01/26 12:00:19;;;;;;;82.23;24.57;;;2.00;99.90;;;;;;5008113;28;20906;-78
2022/01/26 12:02:56;;;;;;;65.13;23.20;;;2.00;99.90;;;;;;5026295;28;20473;-77
2022/01/26 12:05:25;;;;;;;59.97;21.20;;;2.10;99.90;;;;;;5012407;28;20836;-77
2022/01/26 12:07:54;;;;;;;67.27;25.33;;;2.10;99.90;;;;;;5015506;28;20985;-77
2022/01/26 12:10:27;;;;;;;74.47;22.60;;;2.00;99.90;;;;;;5012428;28;21013;-77
2022/01/26 12:13:05;;;;;;;75.57;24.33;;;2.00;99.90;;;;;;5012991;28;20949;-77
2022/01/26 12:15:41;;;;;;;72.90;24.60;;;2.00;99.90;;;;;;5001020;28;20489;-78
2022/01/26 12:18:24;;;;;;;94.67;32.00;;;2.00;99.90;;;;;;5012636;28;20450;-78
2022/01/26 12:32:44;;;;;;;70.77;24.93;;;2.20;99.90;;;;;;5028950;28;20464;-77
2022/01/26 12:35:19;;;;;;;67.13;23.57;;;2.30;99.90;;;;;;5009622;28;20481;-77
2022/01/26 12:38:04;;;;;;;66.63;24.87;;;2.30;99.90;;;;;;5014156;28;20454;-77
2022/01/26 12:43:20;;;;;;;69.23;24.23;;;2.20;99.90;;;;;;5018071;28;20516;-76
2022/01/26 12:48:34;;;;;;;77.57;26.03;;;2.10;99.90;;;;;;5026226;28;20480;-72
2022/01/26 12:51:03;;;;;;;73.37;26.07;;;2.10;99.90;;;;;;5019677;28;20445;-72
2022/01/26 12:53:32;;;;;;;79.47;27.57;;;2.10;99.90;;;;;;5031633;28;20453;-73
2022/01/26 12:56:00;;;;;;;77.90;27.47;;;2.10;99.90;;;;;;5024930;28;20493;-72
2022/01/26 12:58:29;;;;;;;83.53;27.80;;;2.10;99.90;;;;;;5021565;28;21013;-72
2022/01/26 13:01:03;;;;;;;77.13;27.13;;;2.10;99.90;;;;;;5027101;28;20866;-72
2022/01/26 13:03:31;;;;;;;85.17;27.10;;;2.10;99.90;;;;;;5022231;28;20450;-74
2022/01/26 13:06:08;;;;;;;81.13;27.77;;;2.10;99.90;;;;;;5020814;28;20461;-73
2022/01/26 13:08:43;;;;;;;90.13;28.13;;;2.10;99.90;;;;;;5018224;28;20450;-71
2022/01/26 13:11:10;;;;;;;89.77;29.17;;;2.10;99.90;;;;;;5022791;28;20508;-72
2022/01/26 13:13:37;;;;;;;78.67;27.30;;;2.00;99.90;;;;;;5019686;28;20445;-72
2022/01/26 13:16:17;;;;;;;89.00;27.23;;;2.00;99.90;;;;;;5025538;28;20539;-72
2022/01/26 13:24:35;;;;;;;97.80;28.20;;;1.90;99.90;;;;;;5010535;28;20969;-73
2022/01/26 13:27:12;;;;;;;96.73;28.47;;;2.00;99.90;;;;;;5031558;28;20945;-73
2022/01/26 13:29:54;;;;;;;102.40;29.40;;;2.00;99.90;;;;;;5020745;28;20931;-73
2022/01/26 13:38:15;;;;;;;89.70;30.00;;;2.00;99.90;;;;;;5008877;28;20985;-72
2022/01/26 13:41:01;;;;;;;93.67;29.30;;;2.10;99.90;;;;;;5018653;28;20445;-73
2022/01/26 13:49:15;;;;;;;97.67;26.43;;;2.10;99.90;;;;;;4983130;28;20484;-73
2022/01/26 13:51:49;;;;;;;94.57;28.43;;;2.20;99.90;;;;;;5022090;28;20449;-74
2022/01/26 13:54:50;;;;;;;83.17;25.37;;;2.10;99.90;;;;;;5029543;28;21031;-74
2022/01/26 13:57:42;;;;;;;81.30;24.23;;;2.10;99.90;;;;;;5028184;28;20491;-70
2022/01/26 14:00:11;;;;;;;88.90;26.63;;;2.10;99.90;;;;;;5016064;28;20466;-70
2022/01/26 14:02:38;;;;;;;90.87;28.70;;;2.10;99.90;;;;;;5019082;28;20469;-72
2022/01/26 14:05:08;;;;;;;86.03;27.13;;;2.20;99.90;;;;;;5024265;28;20527;-72
2022/01/26 14:07:34;;;;;;;92.33;28.10;;;2.20;99.90;;;;;;5024662;28;20527;-71
2022/01/26 14:10:01;;;;;;;104.30;31.53;;;2.20;99.90;;;;;;5026888;28;20441;-72
2022/01/26 14:12:33;;;;;;;80.77;25.97;;;2.30;99.90;;;;;;5024905;28;20449;-71
2022/01/26 14:15:00;;;;;;;99.37;28.43;;;2.30;99.90;;;;;;5020468;28;20564;-72
2022/01/26 14:17:39;;;;;;;76.40;25.10;;;2.30;99.90;;;;;;5025627;28;20472;-72
2022/01/26 14:20:15;;;;;;;85.73;26.70;;;2.30;99.90;;;;;;5016362;28;21063;-72
2022/01/26 14:23:01;;;;;;;89.03;26.37;;;2.30;99.90;;;;;;5019915;28;20457;-74
2022/01/26 14:25:30;;;;;;;78.10;26.00;;;2.30;99.90;;;;;;5018803;28;20899;-73
2022/01/26 14:28:02;;;;;;;79.60;25.67;;;2.30;99.90;;;;;;5025425;28;20473;-71
2022/01/26 14:30:38;;;;;;;90.63;28.40;;;2.30;99.90;;;;;;5021023;28;20456;-73
2022/01/26 14:36:20;;;;;;;81.30;25.10;;;2.30;99.90;;;;;;5002035;28;20902;-72
2022/01/26 14:55:27;;;;;;;75.40;25.10;;;2.20;99.90;;;;;;5015297;28;20501;-73